sensor_id;sensor_type;location;lat;lon;timestamp;pressure;altitude;pressure_sealevel;temperature;humidity
71643;BME280;59438;45.014;39.006;2023-04-04T00:01:37;101360.81;;;8.79;71.23
71643;BME280;59438;45.014;39.006;2023-04-04T00:04:04;101356.53;;;8.75;71.49
71643;BME280;59438;45.014;39.006;2023-04-04T00:06:30;101355.75;;;8.70;71.34
71643;BME280;59438;45.014;39.006;2023-04-04T00:08:56;101366.28;;;8.66;71.55
71643;BME280;59438;45.014;39.006;2023-04-04T00:11:25;101357.66;;;8.61;72.05
71643;BME280;59438;45.014;39.006;2023-04-04T00:13:51;101351.63;;;8.56;71.71
71643;BME280;59438;45.014;39.006;2023-04-04T00:16:18;101364.69;;;8.59;71.56
71643;BME280;59438;45.014;39.006;2023-04-04T00:18:44;101365.63;;;8.57;71.79
71643;BME280;59438;45.014;39.006;2023-04-04T00:21:10;101362.16;;;8.55;71.73
71643;BME280;59438;45.014;39.006;2023-04-04T00:23:37;101360.47;;;8.51;71.79
71643;BME280;59438;45.014;39.006;2023-04-04T00:26:03;101365.72;;;8.51;71.76
71643;BME280;59438;45.014;39.006;2023-04-04T00:28:31;101368.44;;;8.44;72.38
71643;BME280;59438;45.014;39.006;2023-04-04T00:30:57;101364.09;;;8.42;71.91
71643;BME280;59438;45.014;39.006;2023-04-04T00:33:25;101367.63;;;8.38;72.09
71643;BME280;59438;45.014;39.006;2023-04-04T00:35:52;101367.72;;;8.33;72.37
71643;BME280;59438;45.014;39.006;2023-04-04T00:38:18;101370.41;;;8.30;72.36
71643;BME280;59438;45.014;39.006;2023-04-04T00:40:46;101363.53;;;8.21;72.79
71643;BME280;59438;45.014;39.006;2023-04-04T00:43:14;101371.38;;;8.23;72.19
71643;BME280;59438;45.014;39.006;2023-04-04T00:45:42;101371.47;;;8.18;72.89
71643;BME280;59438;45.014;39.006;2023-04-04T00:48:09;101371.56;;;8.14;72.46
71643;BME280;59438;45.014;39.006;2023-04-04T00:50:35;101368.97;;;8.09;72.50
71643;BME280;59438;45.014;39.006;2023-04-04T00:53:01;101374.31;;;8.03;72.55
71643;BME280;59438;45.014;39.006;2023-04-04T00:55:28;101375.31;;;7.96;72.76
71643;BME280;59438;45.014;39.006;2023-04-04T00:57:54;101370.16;;;7.91;73.12
71643;BME280;59438;45.014;39.006;2023-04-04T01:00:21;101377.16;;;7.89;73.15
71643;BME280;59438;45.014;39.006;2023-04-04T01:02:49;101371.19;;;7.81;73.16
71643;BME280;59438;45.014;39.006;2023-04-04T01:05:16;101383.34;;;7.82;72.87
71643;BME280;59438;45.014;39.006;2023-04-04T01:07:42;101381.69;;;7.78;73.30
71643;BME280;59438;45.014;39.006;2023-04-04T01:10:09;101372.16;;;7.74;73.66
71643;BME280;59438;45.014;39.006;2023-04-04T01:12:36;101376.59;;;7.69;72.98
71643;BME280;59438;45.014;39.006;2023-04-04T01:15:03;101383.59;;;7.68;73.62
71643;BME280;59438;45.014;39.006;2023-04-04T01:17:29;101380.22;;;7.60;73.09
71643;BME280;59438;45.014;39.006;2023-04-04T01:20:01;101357.78;;;7.42;74.47
71643;BME280;59438;45.014;39.006;2023-04-04T01:22:30;101388.94;;;7.59;73.44
71643;BME280;59438;45.014;39.006;2023-04-04T01:24:58;101390.69;;;7.58;74.02
71643;BME280;59438;45.014;39.006;2023-04-04T01:27:27;101387.22;;;7.58;74.27
71643;BME280;59438;45.014;39.006;2023-04-04T01:29:53;101385.44;;;7.60;73.67
71643;BME280;59438;45.014;39.006;2023-04-04T01:32:26;101375.78;;;7.63;74.91
71643;BME280;59438;45.014;39.006;2023-04-04T01:34:57;101376.59;;;7.69;74.32
71643;BME280;59438;45.014;39.006;2023-04-04T01:37:29;101375.66;;;7.73;74.87
71643;BME280;59438;45.014;39.006;2023-04-04T01:40:07;101373.06;;;7.70;74.68
71643;BME280;59438;45.014;39.006;2023-04-04T01:42:37;101379.94;;;7.78;74.84
71643;BME280;59438;45.014;39.006;2023-04-04T01:45:06;101344.44;;;7.62;74.67
71643;BME280;59438;45.014;39.006;2023-04-04T01:47:37;101376.34;;;7.84;75.72
71643;BME280;59438;45.014;39.006;2023-04-04T01:50:05;101377.25;;;7.83;74.54
71643;BME280;59438;45.014;39.006;2023-04-04T01:52:31;101368.56;;;7.81;74.00
71643;BME280;59438;45.014;39.006;2023-04-04T01:54:58;101384.09;;;7.90;74.72
71643;BME280;59438;45.014;39.006;2023-04-04T01:57:24;101377.09;;;7.92;74.45
71643;BME280;59438;45.014;39.006;2023-04-04T01:59:52;101377.97;;;7.93;75.36
71643;BME280;59438;45.014;39.006;2023-04-04T02:02:18;101387.56;;;7.94;75.08
71643;BME280;59438;45.014;39.006;2023-04-04T02:04:44;101381.41;;;7.95;74.78
71643;BME280;59438;45.014;39.006;2023-04-04T02:07:11;101387.53;;;7.95;75.00
71643;BME280;59438;45.014;39.006;2023-04-04T02:09:37;101377.94;;;7.96;75.17
71643;BME280;59438;45.014;39.006;2023-04-04T02:12:04;101388.41;;;7.96;75.17
71643;BME280;59438;45.014;39.006;2023-04-04T02:14:30;101380.53;;;7.96;74.93
71643;BME280;59438;45.014;39.006;2023-04-04T02:16:58;101383.16;;;7.96;75.46
71643;BME280;59438;45.014;39.006;2023-04-04T02:19:25;101384.88;;;7.97;74.87
71643;BME280;59438;45.014;39.006;2023-04-04T02:21:51;101356.34;;;7.83;74.55
71643;BME280;59438;45.014;39.006;2023-04-04T02:24:17;101363.25;;;7.87;75.02
71643;BME280;59438;45.014;39.006;2023-04-04T02:26:44;101390.94;;;7.99;75.27
71643;BME280;59438;45.014;39.006;2023-04-04T02:29:10;101358.13;;;7.78;74.87
71643;BME280;59438;45.014;39.006;2023-04-04T02:31:36;101392.69;;;8.01;74.85
71643;BME280;59438;45.014;39.006;2023-04-04T02:34:04;101394.38;;;8.02;75.16
71643;BME280;59438;45.014;39.006;2023-04-04T02:36:30;101398.75;;;8.03;74.94
71643;BME280;59438;45.014;39.006;2023-04-04T02:38:57;101390.06;;;8.01;74.88
71643;BME280;59438;45.014;39.006;2023-04-04T02:41:23;101397.84;;;8.04;74.84
71643;BME280;59438;45.014;39.006;2023-04-04T02:43:50;101384.00;;;7.98;75.15
71643;BME280;59438;45.014;39.006;2023-04-04T02:46:16;101391.78;;;8.01;75.11
71643;BME280;59438;45.014;39.006;2023-04-04T02:48:42;101394.41;;;8.01;75.05
71643;BME280;59438;45.014;39.006;2023-04-04T02:51:10;101380.47;;;8.00;75.72
71643;BME280;59438;45.014;39.006;2023-04-04T02:53:37;101384.00;;;7.99;75.55
71643;BME280;59438;45.014;39.006;2023-04-04T02:56:03;101394.38;;;8.02;75.75
71643;BME280;59438;45.014;39.006;2023-04-04T02:58:30;101386.53;;;8.04;75.14
71643;BME280;59438;45.014;39.006;2023-04-04T03:00:57;101384.75;;;8.04;75.47
71643;BME280;59438;45.014;39.006;2023-04-04T03:03:23;101383.91;;;8.04;75.28
71643;BME280;59438;45.014;39.006;2023-04-04T03:05:49;101352.72;;;7.88;75.64
71643;BME280;59438;45.014;39.006;2023-04-04T03:08:17;101378.59;;;8.07;75.79
71643;BME280;59438;45.014;39.006;2023-04-04T03:10:44;101383.81;;;8.10;75.52
71643;BME280;59438;45.014;39.006;2023-04-04T03:13:10;101372.50;;;8.08;75.47
71643;BME280;59438;45.014;39.006;2023-04-04T03:15:37;101375.06;;;8.11;75.48
71643;BME280;59438;45.014;39.006;2023-04-04T03:18:03;101365.53;;;8.07;75.79
71643;BME280;59438;45.014;39.006;2023-04-04T03:20:30;101372.34;;;8.17;75.53
71643;BME280;59438;45.014;39.006;2023-04-04T03:22:56;101372.31;;;8.19;75.84
71643;BME280;59438;45.014;39.006;2023-04-04T03:25:24;101377.53;;;8.22;75.88
71643;BME280;59438;45.014;39.006;2023-04-04T03:27:50;101375.69;;;8.25;75.78
71643;BME280;59438;45.014;39.006;2023-04-04T03:30:16;101371.28;;;8.29;75.57
71643;BME280;59438;45.014;39.006;2023-04-04T03:32:43;101378.19;;;8.33;75.61
71643;BME280;59438;45.014;39.006;2023-04-04T03:35:09;101366.84;;;8.34;75.50
71643;BME280;59438;45.014;39.006;2023-04-04T03:37:35;101366.75;;;8.40;75.48
71643;BME280;59438;45.014;39.006;2023-04-04T03:40:02;101373.69;;;8.44;75.29
71643;BME280;59438;45.014;39.006;2023-04-04T03:42:34;101382.28;;;8.51;75.82
71643;BME280;59438;45.014;39.006;2023-04-04T03:45:00;101375.31;;;8.50;74.85
71643;BME280;59438;45.014;39.006;2023-04-04T03:47:27;101382.16;;;8.59;75.05
71643;BME280;59438;45.014;39.006;2023-04-04T03:49:53;101383.84;;;8.63;74.90
71643;BME280;59438;45.014;39.006;2023-04-04T03:52:20;101383.78;;;8.64;74.93
71643;BME280;59438;45.014;39.006;2023-04-04T03:54:46;101397.66;;;8.70;75.17
71643;BME280;59438;45.014;39.006;2023-04-04T03:57:12;101394.09;;;8.74;74.63
71643;BME280;59438;45.014;39.006;2023-04-04T03:59:40;101397.53;;;8.77;75.00
71643;BME280;59438;45.014;39.006;2023-04-04T04:02:06;101400.09;;;8.80;74.56
71643;BME280;59438;45.014;39.006;2023-04-04T04:04:33;101391.25;;;8.86;75.02
71643;BME280;59438;45.014;39.006;2023-04-04T04:06:59;101396.38;;;8.92;74.57
71643;BME280;59438;45.014;39.006;2023-04-04T04:09:25;101391.88;;;8.99;74.50
71643;BME280;59438;45.014;39.006;2023-04-04T04:11:52;101392.63;;;9.05;74.42
71643;BME280;59438;45.014;39.006;2023-04-04T04:14:18;101367.41;;;9.00;74.71
71643;BME280;59438;45.014;39.006;2023-04-04T04:16:46;101393.19;;;9.21;74.93
71643;BME280;59438;45.014;39.006;2023-04-04T04:19:12;101393.84;;;9.31;74.02
71643;BME280;59438;45.014;39.006;2023-04-04T04:21:38;101390.19;;;9.40;73.81
71643;BME280;59438;45.014;39.006;2023-04-04T04:24:05;101391.75;;;9.47;74.11
71643;BME280;59438;45.014;39.006;2023-04-04T04:26:32;101394.31;;;9.52;73.34
71643;BME280;59438;45.014;39.006;2023-04-04T04:28:58;101391.59;;;9.55;73.71
71643;BME280;59438;45.014;39.006;2023-04-04T04:31:24;101382.75;;;9.59;73.59
71643;BME280;59438;45.014;39.006;2023-04-04T04:33:52;101387.00;;;9.66;73.61
71643;BME280;59438;45.014;39.006;2023-04-04T04:36:18;101385.94;;;9.73;74.24
71643;BME280;59438;45.014;39.006;2023-04-04T04:38:45;101383.13;;;9.82;73.63
71643;BME280;59438;45.014;39.006;2023-04-04T04:41:11;101391.69;;;9.91;73.31
71643;BME280;59438;45.014;39.006;2023-04-04T04:43:37;101387.94;;;10.01;73.35
71643;BME280;59438;45.014;39.006;2023-04-04T04:46:04;101387.72;;;10.10;72.97
71643;BME280;59438;45.014;39.006;2023-04-04T04:48:30;101390.97;;;10.20;73.48
71643;BME280;59438;45.014;39.006;2023-04-04T04:50:58;101386.41;;;10.28;72.42
71643;BME280;59438;45.014;39.006;2023-04-04T04:53:24;101383.69;;;10.33;72.85
71643;BME280;59438;45.014;39.006;2023-04-04T04:55:51;101392.22;;;10.41;72.77
71643;BME280;59438;45.014;39.006;2023-04-04T04:58:17;101378.16;;;10.43;71.91
71643;BME280;59438;45.014;39.006;2023-04-04T05:00:44;101376.19;;;10.52;72.08
71643;BME280;59438;45.014;39.006;2023-04-04T05:03:10;101379.63;;;10.55;72.14
71643;BME280;59438;45.014;39.006;2023-04-04T05:05:36;101379.44;;;10.61;72.31
71643;BME280;59438;45.014;39.006;2023-04-04T05:08:05;101369.56;;;10.71;71.39
71643;BME280;59438;45.014;39.006;2023-04-04T05:10:31;101356.19;;;10.79;71.58
71643;BME280;59438;45.014;39.006;2023-04-04T05:12:57;101355.03;;;10.89;71.43
71643;BME280;59438;45.014;39.006;2023-04-04T05:15:24;101354.78;;;10.98;71.32
71643;BME280;59438;45.014;39.006;2023-04-04T05:17:50;101342.47;;;11.00;70.75
71643;BME280;59438;45.014;39.006;2023-04-04T05:20:17;101337.81;;;11.10;71.02
71643;BME280;59438;45.014;39.006;2023-04-04T05:22:43;101343.75;;;11.17;70.49
71643;BME280;59438;45.014;39.006;2023-04-04T05:25:11;101336.47;;;11.26;71.41
71643;BME280;59438;45.014;39.006;2023-04-04T05:27:38;101317.06;;;11.31;70.78
71643;BME280;59438;45.014;39.006;2023-04-04T05:30:05;101303.97;;;11.27;70.10
71643;BME280;59438;45.014;39.006;2023-04-04T05:32:32;101319.13;;;11.49;70.20
71643;BME280;59438;45.014;39.006;2023-04-04T05:34:58;101329.44;;;11.55;69.95
71643;BME280;59438;45.014;39.006;2023-04-04T05:37:24;101320.47;;;11.61;69.68
71643;BME280;59438;45.014;39.006;2023-04-04T05:39:51;101328.19;;;11.67;69.17
71643;BME280;59438;45.014;39.006;2023-04-04T05:42:19;101323.53;;;11.75;69.47
71643;BME280;59438;45.014;39.006;2023-04-04T05:44:45;101304.22;;;11.76;68.99
71643;BME280;59438;45.014;39.006;2023-04-04T05:47:11;101321.34;;;11.89;69.30
71643;BME280;59438;45.014;39.006;2023-04-04T05:49:38;101315.00;;;11.97;68.71
71643;BME280;59438;45.014;39.006;2023-04-04T05:52:04;101316.41;;;12.07;68.61
71643;BME280;59438;45.014;39.006;2023-04-04T05:54:30;101308.19;;;12.16;68.39
71643;BME280;59438;45.014;39.006;2023-04-04T05:56:57;101310.41;;;12.28;68.01
71643;BME280;59438;45.014;39.006;2023-04-04T05:59:24;101297.00;;;12.35;67.60
71643;BME280;59438;45.014;39.006;2023-04-04T06:01:51;101309.75;;;12.47;68.23
71643;BME280;59438;45.014;39.006;2023-04-04T06:04:17;101286.03;;;12.47;67.77
71643;BME280;59438;45.014;39.006;2023-04-04T06:06:44;101284.84;;;12.56;67.24
71643;BME280;59438;45.014;39.006;2023-04-04T06:09:10;101298.28;;;12.73;67.27
71643;BME280;59438;45.014;39.006;2023-04-04T06:11:37;101296.97;;;12.85;67.11
71643;BME280;59438;45.014;39.006;2023-04-04T06:14:03;101288.72;;;12.94;66.65
71643;BME280;59438;45.014;39.006;2023-04-04T06:16:31;101285.78;;;13.02;66.57
71643;BME280;59438;45.014;39.006;2023-04-04T06:18:58;101287.34;;;13.07;66.39
71643;BME280;59438;45.014;39.006;2023-04-04T06:21:24;101281.81;;;13.14;66.37
71643;BME280;59438;45.014;39.006;2023-04-04T06:23:51;101287.66;;;13.22;66.24
71643;BME280;59438;45.014;39.006;2023-04-04T06:26:17;101285.59;;;13.30;65.86
71643;BME280;59438;45.014;39.006;2023-04-04T06:28:46;101290.41;;;13.42;65.55
71643;BME280;59438;45.014;39.006;2023-04-04T06:31:13;101288.16;;;13.55;65.68
71643;BME280;59438;45.014;39.006;2023-04-04T06:33:40;101301.75;;;13.66;65.50
71643;BME280;59438;45.014;39.006;2023-04-04T06:36:07;101291.50;;;13.81;64.99
71643;BME280;59438;45.014;39.006;2023-04-04T06:38:33;101278.06;;;14.07;65.11
71643;BME280;59438;45.014;39.006;2023-04-04T06:41:00;101282.09;;;14.37;64.64
71643;BME280;59438;45.014;39.006;2023-04-04T06:43:26;101278.56;;;14.77;63.92
71643;BME280;59438;45.014;39.006;2023-04-04T06:45:52;101275.22;;;15.30;63.33
71643;BME280;59438;45.014;39.006;2023-04-04T06:48:19;101276.00;;;15.69;61.43
71643;BME280;59438;45.014;39.006;2023-04-04T06:50:47;101267.63;;;15.78;60.60
71643;BME280;59438;45.014;39.006;2023-04-04T06:53:13;101267.56;;;15.80;61.51
71643;BME280;59438;45.014;39.006;2023-04-04T06:55:39;101266.59;;;15.81;62.07
71643;BME280;59438;45.014;39.006;2023-04-04T06:58:06;101263.81;;;15.84;61.75
71643;BME280;59438;45.014;39.006;2023-04-04T07:00:32;101260.06;;;16.05;61.48
71643;BME280;59438;45.014;39.006;2023-04-04T07:02:59;101259.19;;;16.22;60.66
71643;BME280;59438;45.014;39.006;2023-04-04T07:05:26;101255.75;;;16.38;60.64
71643;BME280;59438;45.014;39.006;2023-04-04T07:07:54;101253.63;;;16.44;59.93
71643;BME280;59438;45.014;39.006;2023-04-04T07:10:22;101244.38;;;16.36;59.57
71643;BME280;59438;45.014;39.006;2023-04-04T07:12:48;101257.00;;;16.30;59.95
71643;BME280;59438;45.014;39.006;2023-04-04T07:15:15;101255.38;;;16.28;59.98
71643;BME280;59438;45.014;39.006;2023-04-04T07:17:41;101243.75;;;16.30;59.84
71643;BME280;59438;45.014;39.006;2023-04-04T07:20:08;101246.63;;;16.43;59.42
71643;BME280;59438;45.014;39.006;2023-04-04T07:22:36;101249.88;;;16.48;58.71
71643;BME280;59438;45.014;39.006;2023-04-04T07:25:05;101243.72;;;16.48;58.19
71643;BME280;59438;45.014;39.006;2023-04-04T07:27:32;101230.34;;;16.34;59.19
71643;BME280;59438;45.014;39.006;2023-04-04T07:29:58;101237.28;;;16.36;59.05
71643;BME280;59438;45.014;39.006;2023-04-04T07:32:24;101230.34;;;16.34;59.44
71643;BME280;59438;45.014;39.006;2023-04-04T07:34:51;101227.75;;;16.32;58.93
71643;BME280;59438;45.014;39.006;2023-04-04T07:37:17;101227.50;;;16.37;59.01
71643;BME280;59438;45.014;39.006;2023-04-04T07:39:44;101222.78;;;16.43;58.82
71643;BME280;59438;45.014;39.006;2023-04-04T07:42:11;101213.47;;;16.52;57.69
71643;BME280;59438;45.014;39.006;2023-04-04T07:44:38;101211.41;;;16.57;58.86
71643;BME280;59438;45.014;39.006;2023-04-04T07:47:04;101195.00;;;16.66;58.59
71643;BME280;59438;45.014;39.006;2023-04-04T07:49:30;101204.56;;;16.86;58.19
71643;BME280;59438;45.014;39.006;2023-04-04T07:51:57;101202.00;;;17.01;57.73
71643;BME280;59438;45.014;39.006;2023-04-04T07:54:23;101199.38;;;17.15;57.75
71643;BME280;59438;45.014;39.006;2023-04-04T07:56:49;101173.53;;;17.19;57.03
71643;BME280;59438;45.014;39.006;2023-04-04T07:59:17;101198.94;;;17.39;56.24
71643;BME280;59438;45.014;39.006;2023-04-04T08:01:44;101179.31;;;17.41;56.34
71643;BME280;59438;45.014;39.006;2023-04-04T08:04:10;101186.47;;;17.55;56.13
71643;BME280;59438;45.014;39.006;2023-04-04T08:06:36;101185.16;;;17.62;55.91
71643;BME280;59438;45.014;39.006;2023-04-04T08:09:03;101190.03;;;17.70;55.70
71643;BME280;59438;45.014;39.006;2023-04-04T08:11:29;101172.28;;;17.70;55.49
71643;BME280;59438;45.014;39.006;2023-04-04T08:13:55;101177.22;;;17.77;55.36
71643;BME280;59438;45.014;39.006;2023-04-04T08:16:23;101187.25;;;17.87;54.20
71643;BME280;59438;45.014;39.006;2023-04-04T08:18:50;101168.75;;;17.86;54.89
71643;BME280;59438;45.014;39.006;2023-04-04T08:21:16;101173.25;;;18.00;54.70
71643;BME280;59438;45.014;39.006;2023-04-04T08:23:43;101185.19;;;18.07;54.46
71643;BME280;59438;45.014;39.006;2023-04-04T08:26:09;101178.81;;;18.09;54.18
71643;BME280;59438;45.014;39.006;2023-04-04T08:28:36;101168.88;;;18.13;54.23
71643;BME280;59438;45.014;39.006;2023-04-04T08:31:02;101165.66;;;18.22;54.12
71643;BME280;59438;45.014;39.006;2023-04-04T08:33:31;101165.66;;;18.37;53.26
71643;BME280;59438;45.014;39.006;2023-04-04T08:35:58;101169.91;;;18.39;53.22
71643;BME280;59438;45.014;39.006;2023-04-04T08:38:24;101157.19;;;18.30;53.64
71643;BME280;59438;45.014;39.006;2023-04-04T08:40:50;101175.31;;;18.38;54.03
71643;BME280;59438;45.014;39.006;2023-04-04T08:43:17;101173.50;;;18.38;53.64
71643;BME280;59438;45.014;39.006;2023-04-04T08:45:46;101149.19;;;18.30;53.34
71643;BME280;59438;45.014;39.006;2023-04-04T08:48:15;101148.66;;;18.39;53.13
71643;BME280;59438;45.014;39.006;2023-04-04T08:50:44;101169.03;;;18.53;52.60
71643;BME280;59438;45.014;39.006;2023-04-04T08:53:11;101170.09;;;18.50;52.73
71643;BME280;59438;45.014;39.006;2023-04-04T08:55:37;101152.53;;;18.48;52.79
71643;BME280;59438;45.014;39.006;2023-04-04T08:58:04;101156.03;;;18.48;52.93
71643;BME280;59438;45.014;39.006;2023-04-04T09:00:30;101151.16;;;18.55;52.58
71643;BME280;59438;45.014;39.006;2023-04-04T09:03:04;101144.91;;;18.56;51.51
71643;BME280;59438;45.014;39.006;2023-04-04T09:05:32;101134.75;;;18.48;52.27
71643;BME280;59438;45.014;39.006;2023-04-04T09:08:00;101152.97;;;18.55;51.81
71643;BME280;59438;45.014;39.006;2023-04-04T09:10:27;101151.28;;;18.53;51.47
71643;BME280;59438;45.014;39.006;2023-04-04T09:12:55;101137.41;;;18.48;51.58
71643;BME280;59438;45.014;39.006;2023-04-04T09:15:22;101136.09;;;18.56;52.09
71643;BME280;59438;45.014;39.006;2023-04-04T09:17:48;101138.34;;;18.62;52.23
71643;BME280;59438;45.014;39.006;2023-04-04T09:20:39;101126.91;;;18.74;51.91
71643;BME280;59438;45.014;39.006;2023-04-04T09:23:09;101118.81;;;18.76;51.70
71643;BME280;59438;45.014;39.006;2023-04-04T09:25:35;101118.25;;;18.85;51.95
71643;BME280;59438;45.014;39.006;2023-04-04T09:28:02;101132.69;;;18.95;51.74
71643;BME280;59438;45.014;39.006;2023-04-04T09:30:29;101124.28;;;19.01;50.59
71643;BME280;59438;45.014;39.006;2023-04-04T09:32:55;101115.00;;;18.94;50.65
71643;BME280;59438;45.014;39.006;2023-04-04T09:35:22;101123.38;;;18.88;50.48
71643;BME280;59438;45.014;39.006;2023-04-04T09:37:48;101119.13;;;18.85;50.48
71643;BME280;59438;45.014;39.006;2023-04-04T09:40:16;101110.19;;;18.86;50.26
71643;BME280;59438;45.014;39.006;2023-04-04T09:42:43;101109.56;;;18.96;50.57
71643;BME280;59438;45.014;39.006;2023-04-04T09:45:10;101114.31;;;19.05;49.75
71643;BME280;59438;45.014;39.006;2023-04-04T09:47:39;101098.53;;;19.15;49.33
71643;BME280;59438;45.014;39.006;2023-04-04T09:50:06;101109.25;;;19.27;49.49
71643;BME280;59438;45.014;39.006;2023-04-04T09:52:33;101108.72;;;19.35;49.44
71643;BME280;59438;45.014;39.006;2023-04-04T09:55:01;101095.97;;;19.40;48.95
71643;BME280;59438;45.014;39.006;2023-04-04T09:57:31;101090.72;;;19.39;48.98
71643;BME280;59438;45.014;39.006;2023-04-04T09:59:57;101077.09;;;19.43;48.70
71643;BME280;59438;45.014;39.006;2023-04-04T10:02:24;101080.94;;;19.52;49.04
71643;BME280;59438;45.014;39.006;2023-04-04T10:04:52;101084.78;;;19.61;48.24
71643;BME280;59438;45.014;39.006;2023-04-04T10:07:18;101091.38;;;19.68;47.72
71643;BME280;59438;45.014;39.006;2023-04-04T10:09:45;101080.56;;;19.71;47.05
71643;BME280;59438;45.014;39.006;2023-04-04T10:12:12;101091.84;;;19.75;47.57
71643;BME280;59438;45.014;39.006;2023-04-04T10:14:40;101080.00;;;19.79;45.87
71643;BME280;59438;45.014;39.006;2023-04-04T10:17:07;101071.81;;;19.82;46.11
71643;BME280;59438;45.014;39.006;2023-04-04T10:19:34;101066.38;;;19.83;46.33
71643;BME280;59438;45.014;39.006;2023-04-04T10:22:01;101065.91;;;20.02;45.76
71643;BME280;59438;45.014;39.006;2023-04-04T10:24:28;101072.19;;;20.14;44.94
71643;BME280;59438;45.014;39.006;2023-04-04T10:26:54;101058.72;;;20.16;44.79
71643;BME280;59438;45.014;39.006;2023-04-04T10:29:21;101070.38;;;20.15;44.64
71643;BME280;59438;45.014;39.006;2023-04-04T10:31:52;101067.31;;;20.08;43.96
71643;BME280;59438;45.014;39.006;2023-04-04T10:34:28;101047.16;;;19.91;42.90
71643;BME280;59438;45.014;39.006;2023-04-04T10:37:06;101065.06;;;20.02;42.39
71643;BME280;59438;45.014;39.006;2023-04-04T10:39:36;101060.03;;;19.97;43.29
71643;BME280;59438;45.014;39.006;2023-04-04T10:42:04;101022.66;;;19.86;44.11
71643;BME280;59438;45.014;39.006;2023-04-04T10:44:32;101030.19;;;20.05;43.96
71643;BME280;59438;45.014;39.006;2023-04-04T10:47:06;101031.22;;;20.15;43.54
71643;BME280;59438;45.014;39.006;2023-04-04T10:49:34;101029.28;;;20.17;43.92
71643;BME280;59438;45.014;39.006;2023-04-04T10:52:02;101019.16;;;20.22;44.23
71643;BME280;59438;45.014;39.006;2023-04-04T10:54:30;101039.38;;;20.38;44.24
71643;BME280;59438;45.014;39.006;2023-04-04T10:56:57;101016.91;;;20.29;43.83
71643;BME280;59438;45.014;39.006;2023-04-04T10:59:24;101038.28;;;20.40;43.93
71643;BME280;59438;45.014;39.006;2023-04-04T11:01:54;101029.69;;;20.37;44.44
71643;BME280;59438;45.014;39.006;2023-04-04T11:04:27;101026.44;;;20.44;45.53
71643;BME280;59438;45.014;39.006;2023-04-04T11:07:15;101029.34;;;20.41;43.63
71643;BME280;59438;45.014;39.006;2023-04-04T11:09:52;101034.13;;;20.49;44.01
71643;BME280;59438;45.014;39.006;2023-04-04T11:12:21;101024.91;;;20.53;43.77
71643;BME280;59438;45.014;39.006;2023-04-04T11:14:55;101017.22;;;20.61;43.40
71643;BME280;59438;45.014;39.006;2023-04-04T11:17:41;101010.69;;;20.65;44.06
71643;BME280;59438;45.014;39.006;2023-04-04T11:20:09;100994.78;;;20.64;43.16
71643;BME280;59438;45.014;39.006;2023-04-04T11:22:35;100999.28;;;20.63;43.43
71643;BME280;59438;45.014;39.006;2023-04-04T11:25:28;100996.72;;;20.62;43.26
71643;BME280;59438;45.014;39.006;2023-04-04T11:27:56;100976.53;;;20.58;43.17
71643;BME280;59438;45.014;39.006;2023-04-04T11:30:23;100975.69;;;20.57;43.16
71643;BME280;59438;45.014;39.006;2023-04-04T11:32:50;100975.69;;;20.57;43.15
71643;BME280;59438;45.014;39.006;2023-04-04T11:35:18;100974.75;;;20.58;42.63
71643;BME280;59438;45.014;39.006;2023-04-04T11:37:58;100961.41;;;20.58;43.54
71643;BME280;59438;45.014;39.006;2023-04-04T11:40:33;100957.47;;;20.51;42.56
71643;BME280;59438;45.014;39.006;2023-04-04T11:43:06;100952.63;;;20.56;43.15
71643;BME280;59438;45.014;39.006;2023-04-04T11:45:34;100958.63;;;20.60;42.72
71643;BME280;59438;45.014;39.006;2023-04-04T11:48:02;100952.31;;;20.61;42.00
71643;BME280;59438;45.014;39.006;2023-04-04T11:50:35;100948.13;;;20.57;42.45
71643;BME280;59438;45.014;39.006;2023-04-04T11:53:06;100937.19;;;20.48;42.76
71643;BME280;59438;45.014;39.006;2023-04-04T11:55:38;100946.13;;;20.60;42.03
71643;BME280;59438;45.014;39.006;2023-04-04T11:58:07;100952.56;;;20.69;42.45
71643;BME280;59438;45.014;39.006;2023-04-04T12:00:34;100950.16;;;20.66;42.21
71643;BME280;59438;45.014;39.006;2023-04-04T12:03:03;100948.97;;;20.70;42.17
71643;BME280;59438;45.014;39.006;2023-04-04T12:05:30;100952.47;;;20.70;42.20
71643;BME280;59438;45.014;39.006;2023-04-04T12:07:58;100943.50;;;20.71;41.82
71643;BME280;59438;45.014;39.006;2023-04-04T12:10:25;100942.03;;;20.67;42.28
71643;BME280;59438;45.014;39.006;2023-04-04T12:12:54;100941.69;;;20.72;41.65
71643;BME280;59438;45.014;39.006;2023-04-04T12:15:21;100930.03;;;20.73;41.84
71643;BME280;59438;45.014;39.006;2023-04-04T12:17:47;100937.09;;;20.74;42.24
71643;BME280;59438;45.014;39.006;2023-04-04T12:20:15;100924.59;;;20.75;41.68
71643;BME280;59438;45.014;39.006;2023-04-04T12:22:41;100921.34;;;20.82;41.80
71643;BME280;59438;45.014;39.006;2023-04-04T12:25:09;100926.09;;;20.90;40.56
71643;BME280;59438;45.014;39.006;2023-04-04T12:27:36;100921.34;;;20.93;41.33
71643;BME280;59438;45.014;39.006;2023-04-04T12:30:03;100924.00;;;20.93;41.35
71643;BME280;59438;45.014;39.006;2023-04-04T12:32:30;100913.09;;;20.97;41.19
71643;BME280;59438;45.014;39.006;2023-04-04T12:34:59;100913.00;;;20.98;40.75
71643;BME280;59438;45.014;39.006;2023-04-04T12:37:27;100900.50;;;20.99;40.37
71643;BME280;59438;45.014;39.006;2023-04-04T12:39:55;100880.31;;;20.83;40.76
71643;BME280;59438;45.014;39.006;2023-04-04T12:42:23;100868.06;;;20.81;39.96
71643;BME280;59438;45.014;39.006;2023-04-04T12:44:51;100883.97;;;20.93;40.69